• Join FlightAware (Why Join?)
  • Login
  • US Flag 
09:17PM EST


 

Airport Tracker/Info


-or-


 

Live Flight TrackerFlight Track Log ✈ N327TA ✈ 07-May-2013 ✈ KSMO - KSBA

Flight Track Log - Related Links

Times and Time Zones

All times are in EDT time to prevent confusion due to time zone crossing. See the N327TA flight status page for this flight to view local times or setup timezone preferences in your user account.

Time Position Orientation Groundspeed Altitude Reporting Facility
EDT Latitude Longitude Course Direction KTS MPH feet Rate Location/Type
05:04PM 33.9833 -118.5000 292° West 138 159 1,400  Level Southern California TRACON
05:05PM 33.9833 -118.5500 270° West 143 165 2,100 660 Climbing Southern California TRACON
05:06PM 33.9883 -118.5972 277° West 131 151 2,900 780 Climbing Los Angeles Center
05:07PM 34.0036 -118.6419 292° West 134 154 3,700 720 Climbing Los Angeles Center
05:08PM 34.0175 -118.6844 292° West 135 155 4,500 780 Climbing Los Angeles Center
05:09PM 34.0980 -118.7440 292° West  Level FlightAware Approximate
05:09PM 34.0292 -118.7317 287° West 136 157 5,400  Level Los Angeles Center
05:10PM 34.0419 -118.7769 289° West 142 163 6,000 360 Climbing Los Angeles Center
05:10PM 34.0414 -118.8019 268° West 167 192 6,000  Level Los Angeles Center
05:11PM 34.0564 -118.8333 300° West 166 191 6,000  Level Los Angeles Center
05:11PM 34.0592 -118.8614 277° West 174 200 6,000  Level Los Angeles Center
05:12PM 34.0719 -118.8900 298° West 176 203 6,000  Level Los Angeles Center
05:12PM 34.0822 -118.9161 295° West 181 208 6,000  Level Los Angeles Center
05:13PM 34.0994 -118.9417 309° West 182 209 6,000  Level Los Angeles Center
05:14PM 34.1094 -118.9697 293° West 185 213 6,000  Level Los Angeles Center
05:14PM 34.1250 -118.9950 307° West 183 211 6,000  Level Los Angeles Center
05:15PM 34.1367 -119.0233 296° West 185 213 6,000  Level Los Angeles Center
05:15PM 34.1489 -119.0489 300° West 183 211 6,000  Level Los Angeles Center
05:16PM 34.1636 -119.0769 302° West 185 213 6,000  Level Los Angeles Center
05:16PM 34.1761 -119.1011 302° West 183 211 6,000  Level Los Angeles Center
05:17PM 34.1847 -119.1325 288° West 185 213 6,000 -240 Level Los Angeles Center
05:17PM 34.1956 -119.1711 289° West 185 213 5,800 -540 Descending Los Angeles Center
05:18PM 34.2047 -119.1936 296° West 191 220 5,500 -600 Descending Los Angeles Center
05:18PM 34.2150 -119.2317 288° West 189 217 5,200 -600 Descending Los Angeles Center
05:19PM 34.2250 -119.2547 298° West 200 230 4,900 -720 Descending Los Angeles Center
05:19PM 34.2317 -119.2839 285° West 197 227 4,600 -540 Descending Los Angeles Center
05:20PM 34.2539 -119.3556 291° West 196 226 4,000 -300 Descending Los Angeles Center
05:21PM 34.2758 -119.4125 295° West 175 201 4,000  Level Los Angeles Center
05:22PM 34.2769 -119.4644 271° West 165 190 4,000  Level Los Angeles Center
05:23PM 34.2681 -119.5219 259° West 164 189 4,000  Level Los Angeles Center
05:24PM 34.2644 -119.5728 265° West 161 185 4,000 -300 Level Los Angeles Center
05:25PM 34.2844 -119.6233 296° West 162 186 3,500 -480 Descending Los Angeles Center
05:26PM 34.3125 -119.6717 305° West 156 180 3,000 -240 Descending Los Angeles Center
05:27PM 34.3453 -119.6636 11° North 140 161 3,000  Level Los Angeles Center
05:28PM 34.3242 -119.6367 133° Southeast 151 174 3,000 -240 Level Los Angeles Center
05:30PM 34.3272 -119.6822 275° West 150 173 2,500 -480 Descending Los Angeles Center
05:30PM 34.3558 -119.7200 313° West 157 181 2,100 -540 Descending Los Angeles Center
05:32PM 34.3853 -119.7653 308° West 153 176 1,500 -480 Descending Los Angeles Center
05:33PM 34.4167 -119.7889 328° Northwest 138 159 1,100 -600 Descending Los Angeles Center
05:33PM 34.4286 -119.8139 300° West 107 123 400 -780 Descending Los Angeles Center
05:36PM 34.4167 -119.8333 292° West  Level FlightAware Approximate